createdAt,value
2019-03-21T00:01:37.406Z,45.07
2019-03-21T00:04:13.686Z,43.07
2019-03-21T00:06:44.791Z,41.60
2019-03-21T00:09:17.607Z,44.03
2019-03-21T00:11:59.487Z,41.03
2019-03-21T00:14:54.370Z,45.10
2019-03-21T00:17:28.561Z,44.07
2019-03-21T00:19:59.629Z,42.00
2019-03-21T00:22:30.689Z,44.10
2019-03-21T00:25:01.898Z,43.50
2019-03-21T00:27:33.285Z,46.73
2019-03-21T00:30:05.068Z,43.90
2019-03-21T00:32:36.131Z,32.87
2019-03-21T00:35:07.867Z,38.93
2019-03-21T00:37:38.878Z,40.67
2019-03-21T00:40:12.946Z,40.33
2019-03-21T00:42:44.010Z,42.20
2019-03-21T00:45:16.144Z,47.10
2019-03-21T00:47:47.346Z,44.97
2019-03-21T00:50:19.795Z,39.87
2019-03-21T00:52:52.575Z,42.53
2019-03-21T00:55:24.740Z,38.63
2019-03-21T00:57:58.432Z,39.53
2019-03-21T01:00:38.177Z,38.40
2019-03-21T01:03:09.963Z,36.10
2019-03-21T01:05:41.114Z,35.87
2019-03-21T01:08:13.225Z,35.53
2019-03-21T01:10:44.232Z,36.83
2019-03-21T01:13:15.795Z,36.33
2019-03-21T01:15:46.782Z,36.50
2019-03-21T01:18:17.793Z,32.80
2019-03-21T01:20:48.804Z,28.40
2019-03-21T01:23:19.869Z,26.50
2019-03-21T01:25:52.201Z,29.40
2019-03-21T01:28:23.229Z,27.47
2019-03-21T01:30:54.294Z,32.73
2019-03-21T01:33:25.423Z,34.47
2019-03-21T01:35:56.465Z,36.13
2019-03-21T01:38:27.472Z,36.40
2019-03-21T01:40:58.536Z,35.47
2019-03-21T01:43:29.584Z,37.33
2019-03-21T01:46:00.608Z,37.27
2019-03-21T01:48:31.757Z,36.30
2019-03-21T01:51:02.806Z,37.43
2019-03-21T01:53:33.885Z,37.20
2019-03-21T01:56:04.917Z,37.00
2019-03-21T01:58:36.991Z,37.33
2019-03-21T02:01:08.959Z,37.90
2019-03-21T02:03:40.122Z,35.70
2019-03-21T02:06:11.139Z,35.33
2019-03-21T02:08:42.207Z,37.47
2019-03-21T02:11:14.325Z,35.73
2019-03-21T02:13:45.433Z,34.63
2019-03-21T02:16:16.666Z,35.10
2019-03-21T02:18:47.751Z,32.70
2019-03-21T02:21:18.859Z,36.10
2019-03-21T02:23:50.008Z,33.40
2019-03-21T02:26:21.023Z,33.77
2019-03-21T02:28:51.985Z,31.77
2019-03-21T02:31:22.966Z,32.80
2019-03-21T02:33:53.995Z,32.60
2019-03-21T02:36:25.038Z,33.50
2019-03-21T02:38:56.043Z,34.03
2019-03-21T02:41:27.132Z,34.67
2019-03-21T02:43:58.173Z,36.30
2019-03-21T02:46:29.213Z,34.37
2019-03-21T02:49:00.280Z,34.23
2019-03-21T02:51:31.336Z,34.93
2019-03-21T02:54:02.410Z,35.80
2019-03-21T02:56:33.501Z,37.63
2019-03-21T02:59:04.792Z,35.47
2019-03-21T03:01:35.824Z,36.53
2019-03-21T03:04:06.783Z,35.20
2019-03-21T03:06:37.792Z,36.37
2019-03-21T03:09:09.691Z,33.40
2019-03-21T03:11:40.667Z,35.60
2019-03-21T03:14:11.845Z,35.67
2019-03-21T03:16:42.965Z,33.60
2019-03-21T03:19:14.075Z,33.83
2019-03-21T03:21:45.135Z,36.77
2019-03-21T03:24:16.196Z,33.20
2019-03-21T03:26:47.314Z,30.50
2019-03-21T03:29:18.346Z,33.40
2019-03-21T03:31:49.401Z,29.60
2019-03-21T03:34:20.521Z,29.77
2019-03-21T03:36:52.223Z,28.40
2019-03-21T03:39:23.325Z,28.37
2019-03-21T03:41:54.450Z,28.33
2019-03-21T03:44:25.553Z,29.83
2019-03-21T03:46:56.649Z,29.87
2019-03-21T03:49:27.722Z,31.50
2019-03-21T03:51:58.816Z,31.63
2019-03-21T03:54:29.849Z,33.80
2019-03-21T03:57:00.910Z,33.53
2019-03-21T03:59:31.864Z,33.33
2019-03-21T04:02:02.927Z,34.50
2019-03-21T04:04:34.127Z,35.60
2019-03-21T04:07:05.183Z,33.83
2019-03-21T04:09:36.197Z,36.67
2019-03-21T04:12:07.514Z,35.57
2019-03-21T04:14:38.481Z,35.83
2019-03-21T04:17:09.513Z,35.30
2019-03-21T04:19:40.473Z,33.60
2019-03-21T04:22:11.464Z,34.87
2019-03-21T04:24:42.591Z,36.60
2019-03-21T04:27:13.664Z,37.20
2019-03-21T04:29:44.656Z,34.83
2019-03-21T04:32:15.684Z,35.70
2019-03-21T04:34:46.710Z,35.07
2019-03-21T04:37:17.751Z,32.67
2019-03-21T04:39:48.799Z,34.10
2019-03-21T04:42:19.864Z,33.53
2019-03-21T04:44:50.873Z,33.57
2019-03-21T04:47:21.875Z,33.53
2019-03-21T04:49:52.887Z,34.63
2019-03-21T04:52:23.957Z,33.83
2019-03-21T04:54:55.017Z,34.03
2019-03-21T04:57:26.073Z,32.77
2019-03-21T04:59:57.111Z,34.87
2019-03-21T05:02:28.192Z,34.87
2019-03-21T05:04:59.251Z,36.93
2019-03-21T05:07:32.029Z,34.23
2019-03-21T05:10:03.094Z,35.97
2019-03-21T05:12:35.265Z,37.37
2019-03-21T05:15:08.151Z,36.87
2019-03-21T05:17:39.195Z,40.00
2019-03-21T05:20:14.304Z,41.23
2019-03-21T05:22:46.094Z,42.20
2019-03-21T05:25:17.116Z,44.50
2019-03-21T05:27:48.261Z,41.47
2019-03-21T05:30:22.653Z,42.00
2019-03-21T05:32:53.781Z,43.03
2019-03-21T05:35:24.931Z,42.23
2019-03-21T05:37:56.062Z,43.07
2019-03-21T05:40:27.101Z,41.17
2019-03-21T05:43:04.939Z,46.03
2019-03-21T05:45:37.708Z,40.70
2019-03-21T05:48:08.745Z,40.80
2019-03-21T05:50:39.863Z,45.07
2019-03-21T05:53:11.143Z,42.93
2019-03-21T05:55:42.251Z,41.60
2019-03-21T05:58:13.375Z,41.87
2019-03-21T06:00:45.318Z,38.03
2019-03-21T06:03:19.987Z,37.40
2019-03-21T06:06:00.620Z,37.20
2019-03-21T06:08:34.215Z,39.67
2019-03-21T06:11:05.533Z,36.90
2019-03-21T06:13:36.603Z,35.00
2019-03-21T06:16:11.576Z,37.30
2019-03-21T06:19:09.112Z,36.90
2019-03-21T06:22:11.353Z,35.30
2019-03-21T06:25:18.897Z,34.87
2019-03-21T06:27:50.140Z,35.03
2019-03-21T06:30:22.406Z,36.60
2019-03-21T06:32:53.606Z,35.80
2019-03-21T06:35:24.762Z,36.00
2019-03-21T06:37:55.812Z,34.97
2019-03-21T06:40:26.990Z,35.97
2019-03-21T06:42:58.332Z,34.73
2019-03-21T06:45:29.660Z,35.93
2019-03-21T06:48:00.697Z,36.77
2019-03-21T06:50:31.876Z,34.23
2019-03-21T06:53:03.396Z,35.83
2019-03-21T06:55:34.489Z,34.37
2019-03-21T06:58:05.811Z,34.93
2019-03-21T07:00:36.806Z,34.53
2019-03-21T07:03:07.882Z,35.43
2019-03-21T07:05:38.948Z,36.07
2019-03-21T07:08:10.068Z,37.40
2019-03-21T07:10:41.100Z,35.77
2019-03-21T07:13:12.281Z,35.87
2019-03-21T07:15:43.429Z,35.47
2019-03-21T07:18:14.547Z,34.70
2019-03-21T07:20:45.611Z,33.30
2019-03-21T07:23:16.675Z,34.30
2019-03-21T07:25:47.786Z,33.67
2019-03-21T07:28:18.832Z,33.93
2019-03-21T07:30:49.898Z,31.60
2019-03-21T07:33:20.938Z,31.40
2019-03-21T07:35:51.980Z,29.83
2019-03-21T07:38:23.131Z,29.90
2019-03-21T07:40:54.200Z,30.87
2019-03-21T07:43:25.237Z,29.67
2019-03-21T07:45:56.399Z,29.20
2019-03-21T07:48:27.528Z,32.57
2019-03-21T07:50:58.721Z,33.23
2019-03-21T07:53:29.825Z,35.33
2019-03-21T07:56:00.827Z,31.97
2019-03-21T07:58:31.853Z,32.30
2019-03-21T08:01:02.933Z,37.37
2019-03-21T08:03:34.078Z,37.80
2019-03-21T08:06:05.123Z,38.50
2019-03-21T08:08:36.244Z,38.10
2019-03-21T08:11:07.530Z,39.63
2019-03-21T08:13:38.589Z,34.30
2019-03-21T08:16:09.687Z,29.13
2019-03-21T08:18:40.772Z,26.70
2019-03-21T08:21:11.897Z,27.83
2019-03-21T08:23:42.874Z,45.47
2019-03-21T08:26:13.957Z,46.87
2019-03-21T08:28:44.979Z,41.30
2019-03-21T08:31:20.421Z,38.80
2019-03-21T08:33:51.505Z,41.57
2019-03-21T08:36:22.597Z,37.53
2019-03-21T08:38:54.801Z,39.23
2019-03-21T08:41:27.343Z,38.77
2019-03-21T08:43:58.556Z,37.40
2019-03-21T08:46:29.602Z,37.80
2019-03-21T08:49:00.734Z,40.03
2019-03-21T08:51:31.868Z,38.50
2019-03-21T08:54:02.889Z,38.77
2019-03-21T08:56:33.933Z,41.07
2019-03-21T08:59:05.126Z,37.97
2019-03-21T09:01:36.250Z,36.00
2019-03-21T09:04:07.286Z,30.27
2019-03-21T09:06:38.331Z,30.30
2019-03-21T09:09:10.364Z,27.73
2019-03-21T09:11:41.420Z,27.47
2019-03-21T09:14:12.468Z,27.37
2019-03-21T09:16:43.505Z,28.00
2019-03-21T09:19:14.568Z,26.93
2019-03-21T09:21:45.574Z,25.73
2019-03-21T09:24:17.717Z,23.47
2019-03-21T09:26:48.736Z,21.10
2019-03-21T09:29:19.799Z,20.70
2019-03-21T09:31:50.830Z,22.70
2019-03-21T09:34:21.834Z,23.43
2019-03-21T09:36:52.884Z,22.03
2019-03-21T09:39:23.928Z,20.37
2019-03-21T09:41:54.951Z,20.90
2019-03-21T09:44:24.682Z,21.07
2019-03-21T09:46:55.704Z,19.50
2019-03-21T09:49:26.908Z,19.07
2019-03-21T09:51:58.037Z,18.60
2019-03-21T09:54:29.236Z,18.13
2019-03-21T09:57:00.246Z,19.40
2019-03-21T09:59:31.334Z,19.67
2019-03-21T10:02:02.328Z,19.90
2019-03-21T10:04:33.396Z,18.47
2019-03-21T10:07:04.531Z,19.93
2019-03-21T10:09:35.588Z,22.17
2019-03-21T10:12:06.705Z,22.40
2019-03-21T10:14:37.713Z,21.50
2019-03-21T10:17:08.769Z,19.37
2019-03-21T10:19:39.800Z,19.33
2019-03-21T10:22:10.804Z,20.73
2019-03-21T10:24:41.820Z,20.97
2019-03-21T10:27:12.856Z,24.77
2019-03-21T10:29:44.879Z,23.00
2019-03-21T10:32:15.925Z,25.80
2019-03-21T10:34:47.017Z,22.73
2019-03-21T10:37:18.214Z,27.33
2019-03-21T10:39:49.312Z,23.97
2019-03-21T10:42:20.461Z,25.20
2019-03-21T10:44:51.493Z,33.43
2019-03-21T10:47:23.660Z,27.00
2019-03-21T10:49:54.702Z,23.70
2019-03-21T10:52:25.782Z,22.30
2019-03-21T10:54:56.772Z,21.87
2019-03-21T10:57:27.838Z,24.27
2019-03-21T11:00:01.608Z,22.57
2019-03-21T11:02:31.652Z,23.00
2019-03-21T11:05:02.783Z,23.03
2019-03-21T11:07:33.914Z,21.17
2019-03-21T11:10:06.005Z,23.73
2019-03-21T11:12:37.083Z,21.20
2019-03-21T11:15:09.055Z,22.97
2019-03-21T11:17:40.188Z,23.63
2019-03-21T11:20:13.084Z,24.30
2019-03-21T11:22:44.258Z,25.50
2019-03-21T11:25:15.291Z,25.03
2019-03-21T11:27:46.342Z,22.77
2019-03-21T11:30:20.383Z,21.87
2019-03-21T11:32:51.410Z,21.73
2019-03-21T11:35:22.558Z,23.93
2019-03-21T11:37:53.719Z,23.67
2019-03-21T11:40:24.709Z,21.40
2019-03-21T11:42:57.218Z,22.00
2019-03-21T11:45:28.320Z,22.97
2019-03-21T11:47:59.993Z,22.47
2019-03-21T11:50:31.261Z,22.40
2019-03-21T11:53:02.319Z,23.13
2019-03-21T11:55:33.322Z,22.47
2019-03-21T11:58:04.288Z,20.83
2019-03-21T12:00:42.965Z,22.13
2019-03-21T12:03:08.066Z,21.03
2019-03-21T12:05:39.248Z,20.57
2019-03-21T12:08:10.210Z,21.57
2019-03-21T12:10:41.235Z,22.07
2019-03-21T12:13:12.378Z,24.20
2019-03-21T12:15:43.412Z,22.47
2019-03-21T12:18:14.460Z,21.27
2019-03-21T12:20:45.600Z,22.40
2019-03-21T12:23:16.665Z,21.23
2019-03-21T12:25:47.984Z,20.67
2019-03-21T12:28:19.330Z,21.50
2019-03-21T12:30:50.409Z,21.80
2019-03-21T12:33:21.410Z,21.57
2019-03-21T12:35:52.523Z,20.60
2019-03-21T12:38:23.696Z,20.47
2019-03-21T12:40:54.767Z,21.27
2019-03-21T12:43:25.915Z,20.37
2019-03-21T12:45:56.998Z,22.37
2019-03-21T12:48:28.001Z,20.57
2019-03-21T12:50:59.104Z,21.33
2019-03-21T12:53:30.192Z,21.70
2019-03-21T12:56:01.209Z,22.13
2019-03-21T12:58:32.289Z,20.67
2019-03-21T13:01:03.374Z,22.80
2019-03-21T13:03:34.385Z,21.10
2019-03-21T13:06:05.584Z,22.40
2019-03-21T13:08:36.558Z,22.17
2019-03-21T13:11:07.705Z,20.13
2019-03-21T13:13:38.779Z,21.80
2019-03-21T13:16:09.814Z,20.30
2019-03-21T13:18:40.900Z,20.43
2019-03-21T13:21:11.987Z,21.93
2019-03-21T13:23:43.194Z,23.90
2019-03-21T13:26:14.200Z,22.97
2019-03-21T13:28:45.301Z,22.37
2019-03-21T13:31:17.435Z,22.73
2019-03-21T13:33:48.508Z,22.23
2019-03-21T13:36:19.492Z,21.60
2019-03-21T13:38:50.605Z,21.50
2019-03-21T13:41:21.634Z,29.50
2019-03-21T13:43:52.714Z,30.03
2019-03-21T13:46:24.769Z,29.83
2019-03-21T13:48:55.720Z,35.17
2019-03-21T13:51:26.802Z,28.70
2019-03-21T13:53:57.858Z,35.90
2019-03-21T13:56:37.811Z,28.53
2019-03-21T13:59:01.629Z,34.83
2019-03-21T14:01:32.685Z,20.80
2019-03-21T14:04:03.820Z,20.63
2019-03-21T14:06:34.839Z,20.17
2019-03-21T14:09:07.907Z,18.87
2019-03-21T14:11:39.507Z,16.90
2019-03-21T14:14:10.524Z,15.37
2019-03-21T14:16:47.601Z,16.97
2019-03-21T14:19:18.669Z,16.37
2019-03-21T14:21:49.753Z,16.10
2019-03-21T14:24:21.054Z,16.40
2019-03-21T14:26:52.335Z,14.73
2019-03-21T14:29:23.522Z,16.00
2019-03-21T14:31:54.500Z,14.80
2019-03-21T14:34:25.636Z,17.00
2019-03-21T14:36:56.622Z,11.87
2019-03-21T14:39:27.688Z,13.47
2019-03-21T14:41:58.742Z,13.43
2019-03-21T14:44:29.873Z,13.33
2019-03-21T14:47:00.878Z,13.70
2019-03-21T14:49:31.881Z,13.57
2019-03-21T14:52:02.938Z,14.23
2019-03-21T14:54:34.028Z,13.00
2019-03-21T14:57:05.079Z,14.80
2019-03-21T14:59:36.198Z,14.27
2019-03-21T15:02:07.342Z,14.70
2019-03-21T15:04:40.103Z,13.87
2019-03-21T15:07:11.392Z,13.97
2019-03-21T15:09:42.486Z,14.50
2019-03-21T15:12:13.689Z,15.03
2019-03-21T15:14:44.769Z,14.60
2019-03-21T15:17:15.883Z,14.50
2019-03-21T15:19:46.953Z,13.57
2019-03-21T15:22:17.999Z,14.63
2019-03-21T15:24:49.042Z,13.50
2019-03-21T15:27:20.235Z,14.27
2019-03-21T15:29:51.270Z,12.83
2019-03-21T15:32:22.452Z,12.50
2019-03-21T15:34:53.467Z,12.77
2019-03-21T15:37:24.490Z,11.30
2019-03-21T15:39:55.596Z,13.57
2019-03-21T15:42:26.596Z,11.33
2019-03-21T15:45:15.764Z,13.67
2019-03-21T15:47:30.414Z,14.33
2019-03-21T15:50:01.439Z,17.07
2019-03-21T15:52:32.560Z,18.03
2019-03-21T15:55:03.628Z,15.03
2019-03-21T15:57:34.714Z,14.67
2019-03-21T16:00:06.770Z,15.00
2019-03-21T16:02:38.417Z,14.17
2019-03-21T16:05:09.701Z,12.90
2019-03-21T16:07:40.763Z,14.30
2019-03-21T16:10:11.771Z,14.63
2019-03-21T16:12:42.855Z,15.17
2019-03-21T16:15:13.855Z,14.57
2019-03-21T16:17:45.040Z,14.23
2019-03-21T16:20:16.013Z,15.43
2019-03-21T16:22:47.109Z,15.57
2019-03-21T16:25:18.217Z,16.40
2019-03-21T16:27:49.369Z,16.23
2019-03-21T16:30:20.367Z,16.57
2019-03-21T16:32:51.482Z,16.83
2019-03-21T16:35:22.584Z,17.70
2019-03-21T16:37:53.640Z,17.80
2019-03-21T16:40:24.670Z,19.93
2019-03-21T16:42:55.642Z,20.07
2019-03-21T16:45:26.637Z,19.53
2019-03-21T16:47:58.028Z,18.97
2019-03-21T16:50:29.059Z,19.03
2019-03-21T16:53:00.125Z,21.53
2019-03-21T16:55:31.209Z,21.37
2019-03-21T16:58:02.205Z,23.17
2019-03-21T17:00:33.290Z,24.27
2019-03-21T17:03:04.606Z,26.40
2019-03-21T17:05:35.700Z,26.53
2019-03-21T17:08:11.577Z,25.37
2019-03-21T17:10:39.335Z,23.80
2019-03-21T17:13:10.431Z,20.60
2019-03-21T17:15:41.460Z,20.20
2019-03-21T17:18:12.425Z,20.17
2019-03-21T17:20:43.428Z,19.87
2019-03-21T17:23:14.510Z,24.63
2019-03-21T17:25:45.641Z,24.30
2019-03-21T17:28:16.744Z,24.50
2019-03-21T17:30:47.793Z,23.63
2019-03-21T17:33:18.863Z,24.57
2019-03-21T17:35:49.932Z,24.67
2019-03-21T17:38:21.041Z,26.10
2019-03-21T17:40:52.069Z,24.37
2019-03-21T17:43:23.054Z,25.07
2019-03-21T17:45:54.069Z,24.17
2019-03-21T17:48:25.063Z,23.77
2019-03-21T17:50:56.078Z,24.20
2019-03-21T17:53:27.097Z,26.93
2019-03-21T17:55:58.193Z,29.47
2019-03-21T17:58:30.258Z,29.43
2019-03-21T18:01:01.263Z,32.77
2019-03-21T18:03:32.361Z,37.23
2019-03-21T18:06:03.321Z,40.63
2019-03-21T18:08:34.343Z,38.60
2019-03-21T18:11:05.386Z,36.27
2019-03-21T18:13:36.444Z,34.83
2019-03-21T18:16:07.508Z,34.37
2019-03-21T18:18:38.576Z,36.70
2019-03-21T18:21:09.569Z,34.67
2019-03-21T18:23:40.680Z,34.83
2019-03-21T18:26:11.771Z,38.10
2019-03-21T18:28:42.873Z,44.47
2019-03-21T18:31:13.888Z,44.73
2019-03-21T18:33:46.193Z,49.07
2019-03-21T18:36:17.243Z,50.07
2019-03-21T18:38:57.633Z,52.90
2019-03-21T18:41:20.917Z,54.53
2019-03-21T18:43:52.061Z,57.57
2019-03-21T18:46:23.145Z,60.37
2019-03-21T18:48:54.254Z,64.13
2019-03-21T18:51:25.241Z,64.50
2019-03-21T18:53:56.370Z,61.53
2019-03-21T18:56:27.363Z,62.20
2019-03-21T18:58:58.397Z,62.43
2019-03-21T19:01:29.371Z,65.33
2019-03-21T19:04:00.576Z,68.27
2019-03-21T19:06:31.659Z,76.17
2019-03-21T19:09:02.844Z,86.03
2019-03-21T19:11:35.469Z,86.33
2019-03-21T19:14:06.447Z,85.70
2019-03-21T19:16:37.641Z,79.83
2019-03-21T19:19:08.627Z,76.77
2019-03-21T19:21:40.834Z,76.77
2019-03-21T19:24:11.947Z,79.47
2019-03-21T19:26:42.999Z,82.87
2019-03-21T19:29:15.161Z,80.10
2019-03-21T19:31:46.258Z,77.30
2019-03-21T19:34:17.348Z,70.67
2019-03-21T19:36:48.428Z,66.73
2019-03-21T19:39:19.469Z,68.60
2019-03-21T19:41:50.542Z,62.73
2019-03-21T19:44:21.584Z,59.03
2019-03-21T19:46:52.624Z,55.33
2019-03-21T19:49:24.907Z,54.13
2019-03-21T19:51:55.937Z,53.53
2019-03-21T19:54:26.888Z,51.67
2019-03-21T19:56:57.960Z,56.03
2019-03-21T19:59:30.181Z,62.03
2019-03-21T20:02:01.938Z,58.20
2019-03-21T20:04:33.048Z,48.80
2019-03-21T20:07:04.178Z,46.87
2019-03-21T20:09:35.223Z,48.57
2019-03-21T20:12:06.321Z,49.20
2019-03-21T20:14:37.398Z,50.50
2019-03-21T20:17:08.447Z,74.17
2019-03-21T20:19:39.657Z,74.90
2019-03-21T20:22:10.797Z,77.13
2019-03-21T20:24:41.883Z,80.00
2019-03-21T20:27:12.965Z,75.70
2019-03-21T20:29:44.008Z,78.37
2019-03-21T20:32:20.517Z,78.30
2019-03-21T20:34:47.786Z,79.60
2019-03-21T20:37:18.763Z,73.10
2019-03-21T20:39:49.847Z,71.87
2019-03-21T20:42:20.915Z,69.73
2019-03-21T20:44:51.928Z,68.77
2019-03-21T20:47:22.998Z,68.33
2019-03-21T20:49:54.068Z,69.43
2019-03-21T20:52:25.237Z,69.47
2019-03-21T20:54:56.271Z,70.50
2019-03-21T20:57:27.370Z,70.80
2019-03-21T20:59:58.338Z,67.63
2019-03-21T21:02:29.456Z,68.53
2019-03-21T21:05:00.526Z,67.93
2019-03-21T21:07:31.726Z,72.30
2019-03-21T21:10:02.735Z,69.27
2019-03-21T21:12:34.299Z,75.13
2019-03-21T21:15:06.064Z,78.60
2019-03-21T21:17:37.065Z,74.03
2019-03-21T21:20:09.229Z,71.97
2019-03-21T21:22:41.243Z,69.03
2019-03-21T21:25:12.345Z,64.73
2019-03-21T21:27:49.634Z,71.83
2019-03-21T21:30:18.516Z,69.13
2019-03-21T21:32:49.706Z,66.53
2019-03-21T21:35:20.830Z,64.83
2019-03-21T21:37:51.947Z,63.03
2019-03-21T21:40:22.968Z,63.27
2019-03-21T21:42:54.001Z,63.97
2019-03-21T21:45:24.996Z,60.73
2019-03-21T21:47:56.068Z,58.77
2019-03-21T21:50:27.082Z,58.00
2019-03-21T21:52:58.114Z,54.20
2019-03-21T21:55:29.148Z,52.17
2019-03-21T21:58:00.255Z,54.60
2019-03-21T22:00:31.362Z,54.00
2019-03-21T22:03:02.404Z,55.83
2019-03-21T22:05:33.411Z,54.43
2019-03-21T22:08:04.527Z,54.27
2019-03-21T22:10:35.626Z,51.60
2019-03-21T22:13:06.769Z,51.97
2019-03-21T22:15:37.792Z,55.37
2019-03-21T22:18:08.933Z,56.53
2019-03-21T22:20:39.933Z,59.77
2019-03-21T22:23:11.076Z,58.77
2019-03-21T22:25:42.085Z,58.20
2019-03-21T22:28:13.110Z,57.70
2019-03-21T22:30:44.161Z,54.63
2019-03-21T22:33:15.204Z,54.33
2019-03-21T22:35:46.230Z,57.57
2019-03-21T22:38:17.248Z,59.40
2019-03-21T22:40:48.351Z,61.10
2019-03-21T22:43:19.346Z,64.07
2019-03-21T22:45:50.349Z,71.20
2019-03-21T22:48:21.314Z,73.17
2019-03-21T22:50:52.310Z,66.83
2019-03-21T22:53:23.372Z,61.00
2019-03-21T22:55:54.494Z,68.63
2019-03-21T22:58:31.696Z,66.77
2019-03-21T23:00:58.112Z,59.10
2019-03-21T23:03:30.758Z,58.47
2019-03-21T23:06:01.812Z,60.93
2019-03-21T23:08:32.816Z,64.60
2019-03-21T23:11:03.956Z,61.67
2019-03-21T23:13:35.097Z,62.10
2019-03-21T23:16:06.120Z,60.93
2019-03-21T23:18:37.126Z,56.03
2019-03-21T23:21:08.196Z,55.13
2019-03-21T23:23:39.262Z,48.57
2019-03-21T23:26:10.464Z,48.83
2019-03-21T23:28:41.542Z,49.30
2019-03-21T23:31:12.674Z,49.53
2019-03-21T23:33:43.725Z,50.63
2019-03-21T23:36:15.812Z,50.10
2019-03-21T23:38:46.991Z,52.83
2019-03-21T23:41:18.073Z,50.50
2019-03-21T23:43:49.096Z,51.70
2019-03-21T23:46:20.159Z,50.57
2019-03-21T23:48:51.177Z,50.33
2019-03-21T23:51:22.166Z,50.93
2019-03-21T23:53:53.180Z,54.87
2019-03-21T23:56:24.261Z,55.53
2019-03-21T23:58:55.537Z,53.57
